Time;durP1;ratioP1;P1;durP2;ratioP2;P2;SDS_P1;SDS_P2;PMS_P1;PMS_P2;Temp;Humidity;BMP_temperature;BMP_pressure;BME280_temperature;BME280_humidity;BME280_pressure;Samples;Min_cycle;Max_cycle;Signal;HPM_P1;HPM_P2
2023/10/07 00:00:17;;;;;;;11.33;10.40;;;;;;;11.82;82.00;93699.75;5048394;28;20167;-79
2023/10/07 00:02:42;;;;;;;11.10;10.27;;;;;;;11.89;81.87;93718.63;5039722;28;20183;-78
2023/10/07 00:05:14;;;;;;;11.80;10.90;;;;;;;11.85;81.88;93707.09;5042805;28;20212;-78
2023/10/07 00:07:43;;;;;;;10.57;9.87;;;;;;;11.83;81.80;93703.97;5051865;28;20182;-78
2023/10/07 00:10:14;;;;;;;12.37;11.27;;;;;;;11.81;81.95;93699.00;5042772;28;20190;-78
2023/10/07 00:12:40;;;;;;;10.93;10.03;;;;;;;11.71;82.04;93682.47;5044020;28;20247;-79
2023/10/07 00:15:11;;;;;;;11.20;10.50;;;;;;;11.82;81.88;93703.16;5052134;28;20228;-84
2023/10/07 00:17:42;;;;;;;11.93;11.03;;;;;;;11.66;82.67;93698.16;5050825;28;20204;-84
2023/10/07 00:20:12;;;;;;;11.77;11.03;;;;;;;11.61;83.21;93695.50;5051250;28;20201;-82
2023/10/07 00:22:42;;;;;;;11.70;10.97;;;;;;;11.64;82.70;93689.78;5051075;28;20182;-88
2023/10/07 00:25:08;;;;;;;11.43;10.43;;;;;;;11.56;82.96;93690.25;5050167;28;20240;-87
2023/10/07 00:27:38;;;;;;;11.73;10.87;;;;;;;11.58;83.70;93678.47;5050513;28;20198;-87
2023/10/07 00:30:15;;;;;;;12.47;11.67;;;;;;;11.47;83.38;93671.66;5054023;28;20236;-87
2023/10/07 00:32:40;;;;;;;11.77;10.87;;;;;;;11.50;83.84;93680.81;5074826;28;20180;-86
2023/10/07 00:35:07;;;;;;;12.03;11.13;;;;;;;11.45;83.83;93683.41;5058273;28;20262;-78
2023/10/07 00:37:38;;;;;;;11.47;10.57;;;;;;;11.48;83.92;93688.13;5068698;28;20182;-81
2023/10/07 00:40:14;;;;;;;10.77;9.93;;;;;;;11.45;83.70;93670.34;5066019;28;20216;-78
2023/10/07 00:42:47;;;;;;;12.37;11.10;;;;;;;11.52;83.42;93671.66;5069464;28;20194;-76
2023/10/07 00:45:16;;;;;;;11.57;10.70;;;;;;;11.53;83.39;93664.63;5073079;28;20235;-78
2023/10/07 00:47:49;;;;;;;11.43;10.60;;;;;;;11.57;83.05;93668.28;5069145;28;20178;-77
2023/10/07 00:50:15;;;;;;;13.03;10.70;;;;;;;11.54;83.01;93659.13;5066530;28;20179;-77
2023/10/07 00:52:56;;;;;;;11.90;11.10;;;;;;;11.65;82.47;93665.97;5069616;28;20181;-78
2023/10/07 00:55:34;;;;;;;11.83;10.97;;;;;;;11.58;82.92;93652.31;5063378;28;20195;-78
2023/10/07 00:58:26;;;;;;;12.03;11.23;;;;;;;11.60;83.06;93654.69;5070843;28;20217;-77
2023/10/07 01:00:55;;;;;;;11.90;11.10;;;;;;;11.56;83.36;93651.81;5074628;28;20180;-78
2023/10/07 01:08:35;;;;;;;12.53;11.73;;;;;;;11.45;83.31;93649.44;5068307;28;20208;-78
2023/10/07 01:13:50;;;;;;;13.10;12.00;;;;;;;11.49;83.61;93646.03;5070127;28;20226;-77
2023/10/07 01:16:28;;;;;;;12.07;10.93;;;;;;;11.44;83.81;93653.09;5070354;28;20189;-77
2023/10/07 01:19:04;;;;;;;11.30;10.60;;;;;;;11.39;83.79;93646.78;5066178;28;20251;-78
2023/10/07 01:21:33;;;;;;;11.67;10.93;;;;;;;11.45;83.79;93649.44;5069818;28;20168;-78
2023/10/07 01:23:59;;;;;;;12.47;11.67;;;;;;;11.46;83.59;93648.38;5068527;28;20223;-78
2023/10/07 01:26:30;;;;;;;11.80;10.63;;;;;;;11.38;83.69;93642.63;5069123;28;20232;-80
2023/10/07 01:29:15;;;;;;;12.37;11.37;;;;;;;11.33;84.27;93653.06;5060715;28;20225;-77
2023/10/07 01:32:11;;;;;;;12.07;11.17;;;;;;;11.30;84.57;93669.25;5043945;28;20199;-78
2023/10/07 01:34:37;;;;;;;12.03;11.13;;;;;;;11.07;85.43;93650.59;5067387;28;20226;-77
2023/10/07 01:37:03;;;;;;;12.10;11.20;;;;;;;11.04;86.32;93649.31;5074361;28;20178;-79
2023/10/07 01:39:31;;;;;;;11.33;10.17;;;;;;;11.03;86.02;93658.19;5068259;28;20213;-78
2023/10/07 01:42:01;;;;;;;10.93;10.23;;;;;;;11.19;85.39;93657.19;5066201;28;20206;-79
2023/10/07 01:44:32;;;;;;;12.57;11.53;;;;;;;11.20;85.74;93657.97;5078693;28;20227;-76
2023/10/07 01:46:57;;;;;;;11.27;10.47;;;;;;;11.17;85.63;93643.59;5068731;28;20217;-78
2023/10/07 01:49:22;;;;;;;11.60;10.80;;;;;;;11.18;85.68;93645.16;5068886;28;20252;-78
2023/10/07 01:51:52;;;;;;;12.73;11.57;;;;;;;11.13;86.04;93650.38;5042389;28;20185;-78
2023/10/07 01:54:21;;;;;;;12.47;11.63;;;;;;;11.15;86.05;93655.34;5069371;28;20270;-78
2023/10/07 01:56:52;;;;;;;11.97;11.00;;;;;;;11.11;85.99;93649.84;5064763;28;20185;-79
2023/10/07 01:59:17;;;;;;;12.43;11.50;;;;;;;10.87;86.23;93640.88;5069190;28;20206;-77
2023/10/07 02:01:51;;;;;;;12.90;11.87;;;;;;;10.99;86.65;93645.88;5068470;28;20209;-78
2023/10/07 02:04:18;;;;;;;12.37;11.33;;;;;;;10.83;87.81;93637.19;5068883;28;20223;-77
2023/10/07 02:06:52;;;;;;;11.73;10.90;;;;;;;10.89;87.98;93636.19;5067152;28;20209;-77
2023/10/07 02:09:29;;;;;;;13.07;12.17;;;;;;;10.89;87.34;93630.97;5067978;28;20220;-77
2023/10/07 02:12:09;;;;;;;11.43;10.33;;;;;;;10.90;87.00;93637.75;5068294;28;20848;-74
2023/10/07 02:14:34;;;;;;;11.77;10.77;;;;;;;10.79;86.95;93630.91;5052729;28;20229;-77
2023/10/07 02:17:00;;;;;;;11.80;11.10;;;;;;;10.65;88.01;93624.56;5048226;28;20191;-77
2023/10/07 02:19:31;;;;;;;12.37;11.47;;;;;;;10.77;87.51;93627.75;5048228;28;20275;-78
2023/10/07 02:22:07;;;;;;;12.53;11.53;;;;;;;10.78;88.32;93629.34;5048217;28;20184;-78
2023/10/07 02:24:38;;;;;;;12.10;11.10;;;;;;;10.79;87.53;93625.69;5046039;28;20221;-78
2023/10/07 02:27:06;;;;;;;12.73;11.93;;;;;;;10.75;87.09;93622.00;5049143;28;20203;-79
2023/10/07 02:29:34;;;;;;;11.63;10.73;;;;;;;10.76;87.08;93626.19;5048819;28;20221;-78
2023/10/07 02:32:17;;;;;;;12.03;11.13;;;;;;;10.74;87.10;93632.72;5044061;28;20183;-78
2023/10/07 02:34:53;;;;;;;10.67;9.67;;;;;;;10.66;87.17;93618.28;5048104;28;20215;-78
2023/10/07 02:37:25;;;;;;;12.20;11.13;;;;;;;10.81;87.04;93631.44;5049152;28;20185;-79
2023/10/07 02:39:56;;;;;;;12.60;11.70;;;;;;;10.74;87.38;93628.25;5049488;28;20249;-78
2023/10/07 02:42:23;;;;;;;11.33;10.60;;;;;;;10.72;87.73;93630.31;5049573;28;20187;-78
2023/10/07 02:45:00;;;;;;;12.37;11.47;;;;;;;10.66;87.32;93607.84;5048250;28;20222;-77
2023/10/07 02:47:31;;;;;;;11.37;10.40;;;;;;;10.68;87.57;93637.09;5049118;28;20219;-78
2023/10/07 02:50:00;;;;;;;13.10;11.87;;;;;;;10.67;87.83;93630.31;5048401;28;20212;-78
2023/10/07 02:52:29;;;;;;;13.67;12.67;;;;;;;10.59;87.79;93627.41;5046502;28;20190;-78
2023/10/07 02:55:14;;;;;;;11.13;10.53;;;;;;;10.64;87.56;93624.81;5040743;28;20213;-77
2023/10/07 02:57:40;;;;;;;11.60;10.60;;;;;;;10.69;87.17;93620.38;5044691;28;20178;-78
2023/10/07 03:00:15;;;;;;;11.37;10.77;;;;;;;10.61;87.53;93620.91;5048912;28;20196;-78
2023/10/07 03:02:50;;;;;;;11.67;10.87;;;;;;;10.52;87.86;93617.16;5048664;28;20195;-77
2023/10/07 03:05:29;;;;;;;11.03;10.13;;;;;;;10.59;88.82;93622.97;5044470;28;20194;-77
2023/10/07 03:08:06;;;;;;;12.07;11.17;;;;;;;10.69;88.20;93625.63;5047960;28;20330;-78
2023/10/07 03:10:44;;;;;;;12.37;11.07;;;;;;;10.69;87.75;93625.63;5048721;28;20950;-77
2023/10/07 03:13:09;;;;;;;11.37;10.30;;;;;;;10.48;88.41;93623.94;5045720;28;20237;-78
2023/10/07 03:18:02;;;;;;;11.67;10.87;;;;;;;10.51;88.85;93633.09;5042115;28;21027;-78
2023/10/07 03:20:28;;;;;;;13.47;11.33;;;;;;;10.43;89.13;93636.97;5048294;28;20178;-78
2023/10/07 03:23:13;;;;;;;12.30;11.23;;;;;;;10.37;88.15;93631.97;5048264;28;20207;-78
2023/10/07 03:28:20;;;;;;;12.80;11.50;;;;;;;10.26;88.24;93628.50;5050470;28;20265;-92
2023/10/07 03:30:47;;;;;;;10.97;10.17;;;;;;;10.21;88.81;93627.69;5048207;28;20191;-84
2023/10/07 03:33:15;;;;;;;11.70;10.90;;;;;;;10.13;89.14;93621.13;5082266;28;20233;-85
2023/10/07 03:36:30;;;;;;;11.93;10.87;;;;;;;9.97;91.42;93606.34;5045499;28;20231;-86
2023/10/07 03:38:34;;;;;;;11.10;10.30;;;;;;;10.14;90.83;93625.28;5044795;28;20222;-86
2023/10/07 03:41:00;;;;;;;11.47;10.77;;;;;;;10.03;91.27;93628.84;5039228;28;20183;-85
2023/10/07 03:43:28;;;;;;;11.90;10.93;;;;;;;9.89;91.65;93625.06;5050290;28;20282;-85
2023/10/07 03:45:55;;;;;;;12.63;11.63;;;;;;;9.90;92.43;93621.41;5052446;28;20226;-86
2023/10/07 03:48:24;;;;;;;11.57;10.67;;;;;;;9.91;91.14;93633.44;5052960;28;20229;-80
2023/10/07 03:51:04;;;;;;;12.50;11.60;;;;;;;9.93;91.67;93631.34;5052059;28;20179;-86
2023/10/07 03:53:32;;;;;;;12.07;11.17;;;;;;;9.85;91.96;93634.44;5058764;28;20229;-85
2023/10/07 03:56:06;;;;;;;12.87;11.70;;;;;;;9.98;91.28;93628.78;5071043;28;20182;-87
2023/10/07 03:58:32;;;;;;;11.60;10.70;;;;;;;9.97;91.36;93629.84;5060787;28;20236;-86
2023/10/07 04:01:04;;;;;;;11.93;10.90;;;;;;;9.86;91.58;93625.56;5072113;28;20185;-86
2023/10/07 04:03:35;;;;;;;11.90;11.00;;;;;;;9.68;92.04;93631.16;5065946;28;20771;-85
2023/10/07 04:06:01;;;;;;;11.10;10.37;;;;;;;9.66;91.63;93620.19;5071755;28;20236;-86
2023/10/07 04:08:27;;;;;;;11.10;10.17;;;;;;;9.77;91.09;93629.69;5070974;28;20214;-86
2023/10/07 04:10:54;;;;;;;12.70;11.60;;;;;;;9.71;91.47;93634.03;5070671;28;20175;-87
2023/10/07 04:13:24;;;;;;;12.30;11.40;;;;;;;9.59;91.94;93630.03;5071317;28;20226;-86
2023/10/07 04:15:53;;;;;;;11.83;11.03;;;;;;;9.65;92.48;93635.03;5072155;28;20197;-82
2023/10/07 04:18:34;;;;;;;13.20;11.97;;;;;;;9.63;93.88;93644.16;5058873;28;20309;-86
2023/10/07 04:21:01;;;;;;;14.33;12.97;;;;;;;9.52;95.05;93639.88;5070546;28;20178;-86
2023/10/07 04:23:26;;;;;;;14.00;11.07;;;;;;;9.59;94.07;93641.25;5053595;28;20244;-86
2023/10/07 04:25:56;;;;;;;12.07;11.17;;;;;;;9.50;93.96;93628.91;5068992;28;20202;-86
2023/10/07 04:28:25;;;;;;;13.00;11.87;;;;;;;9.62;93.40;93629.53;5063841;28;20214;-83
2023/10/07 04:30:53;;;;;;;12.00;11.03;;;;;;;9.48;93.69;93623.13;5072739;28;20165;-86
2023/10/07 04:33:25;;;;;;;12.37;11.30;;;;;;;9.40;94.50;93613.19;5070005;28;20221;-85
2023/10/07 04:35:53;;;;;;;11.60;10.60;;;;;;;9.46;93.89;93618.19;5070499;28;20188;-83
2023/10/07 04:43:36;;;;;;;14.07;11.27;;;;;;;9.60;93.91;93627.16;5065256;28;20233;-82
2023/10/07 04:46:20;;;;;;;13.40;12.13;;;;;;;9.41;94.64;93601.72;5062787;28;20222;-79
2023/10/07 04:48:54;;;;;;;11.93;10.93;;;;;;;9.56;94.27;93622.69;5065525;28;20296;-78
2023/10/07 04:51:33;;;;;;;14.17;11.80;;;;;;;9.42;95.92;93624.13;5073778;28;20238;-80
2023/10/07 04:53:59;;;;;;;12.10;11.23;;;;;;;9.64;95.10;93623.06;5062135;28;20229;-78
2023/10/07 04:56:25;;;;;;;12.67;11.80;;;;;;;9.56;94.55;93631.31;5062934;28;20181;-76
2023/10/07 04:58:55;;;;;;;12.67;11.77;;;;;;;9.58;95.56;93623.25;5069798;28;20226;-76
2023/10/07 05:01:33;;;;;;;11.70;10.93;;;;;;;9.44;94.26;93585.59;5063843;28;20181;-79
2023/10/07 05:04:04;;;;;;;13.40;12.20;;;;;;;9.75;94.12;93642.97;5053019;28;20230;-75
2023/10/07 05:06:35;;;;;;;12.30;11.17;;;;;;;9.71;95.79;93638.50;5066467;28;20211;-80
2023/10/07 05:09:09;;;;;;;13.70;11.53;;;;;;;9.83;95.73;93633.91;5059199;28;20230;-78
2023/10/07 05:11:40;;;;;;;12.20;11.20;;;;;;;9.86;95.37;93636.00;5067806;28;20660;-79
2023/10/07 05:14:10;;;;;;;12.53;11.60;;;;;;;9.79;95.69;93635.41;5068975;28;20244;-81
2023/10/07 05:16:36;;;;;;;13.53;10.67;;;;;;;10.03;94.72;93644.50;5055631;28;20176;-77
2023/10/07 05:19:04;;;;;;;13.70;12.50;;;;;;;9.95;95.35;93646.75;5051179;28;20280;-77
2023/10/07 05:21:31;;;;;;;12.83;11.67;;;;;;;9.98;94.46;93626.19;5061092;28;20241;-78
2023/10/07 05:24:01;;;;;;;13.13;11.37;;;;;;;9.98;95.33;93634.00;5064394;28;20225;-80
2023/10/07 05:26:27;;;;;;;13.83;12.20;;;;;;;10.16;95.13;93651.94;5061866;28;20230;-81
2023/10/07 05:28:52;;;;;;;13.57;12.17;;;;;;;10.18;95.66;93665.50;5057531;28;20222;-77
2023/10/07 05:31:18;;;;;;;13.03;11.97;;;;;;;10.25;94.20;93666.09;5056528;28;20262;-88
2023/10/07 05:33:44;;;;;;;13.87;12.77;;;;;;;10.32;94.09;93666.66;5066432;28;20257;-80
2023/10/07 05:36:17;;;;;;;15.53;13.97;;;;;;;10.41;93.59;93672.97;5065956;28;20201;-82
2023/10/07 05:38:44;;;;;;;13.93;12.83;;;;;;;10.46;93.33;93678.22;5067134;28;20225;-82
2023/10/07 05:41:14;;;;;;;15.37;13.40;;;;;;;10.50;93.13;93673.31;5069295;28;20197;-91
2023/10/07 05:43:43;;;;;;;14.87;13.67;;;;;;;10.52;93.03;93676.47;5070496;28;20225;-87
2023/10/07 05:46:12;;;;;;;14.73;13.43;;;;;;;10.70;91.67;93682.06;5086100;28;20244;-90
2023/10/07 05:48:38;;;;;;;15.87;14.57;;;;;;;10.70;91.98;93682.06;5062237;28;20248;-86
2023/10/07 05:51:07;;;;;;;14.87;13.57;;;;;;;10.75;92.27;93687.31;5065642;28;20235;-82
2023/10/07 05:53:39;;;;;;;15.87;14.17;;;;;;;10.72;93.17;93682.56;5051851;28;20236;-80
2023/10/07 05:56:06;;;;;;;14.77;13.67;;;;;;;10.75;92.96;93679.47;5045717;28;20205;-83
2023/10/07 05:58:33;;;;;;;16.60;14.53;;;;;;;10.65;93.37;93678.59;5043964;28;20252;-84
2023/10/07 06:01:00;;;;;;;14.30;12.90;;;;;;;10.91;92.34;93686.34;5042474;28;20193;-85
2023/10/07 06:03:26;;;;;;;15.77;14.17;;;;;;;10.96;92.29;93691.59;5043057;28;20224;-86
2023/10/07 06:05:52;;;;;;;18.37;16.57;;;;;;;10.84;93.59;93688.41;5050819;28;20279;-84
2023/10/07 06:08:18;;;;;;;18.67;16.17;;;;;;;10.79;93.49;93693.59;5038688;28;20235;-84
2023/10/07 06:10:51;;;;;;;16.93;14.87;;;;;;;10.82;93.67;93687.84;5037681;28;20191;-83
2023/10/07 06:13:18;;;;;;;18.27;15.57;;;;;;;10.91;93.80;93693.41;5041290;28;20249;-88
2023/10/07 06:15:45;;;;;;;16.10;14.27;;;;;;;11.09;92.40;93688.53;5041208;28;20221;-93
2023/10/07 06:18:11;;;;;;;16.17;14.67;;;;;;;11.25;91.47;93692.75;5049204;28;20263;-85
2023/10/07 06:20:46;;;;;;;17.87;16.03;;;;;;;11.45;90.56;93691.25;5044506;28;20249;-85
2023/10/07 06:23:16;;;;;;;16.67;15.17;;;;;;;11.17;91.87;93687.25;5035509;28;20241;-86
2023/10/07 06:25:49;;;;;;;16.50;15.17;;;;;;;11.31;91.10;93670.81;5042239;28;20297;-83
2023/10/07 06:31:27;;;;;;;17.67;15.87;;;;;;;11.76;88.68;93675.44;5049952;28;20206;-88
2023/10/07 06:34:00;;;;;;;23.00;15.50;;;;;;;11.86;88.16;93691.13;5036492;28;20256;-89
2023/10/07 06:36:27;;;;;;;18.53;15.40;;;;;;;11.63;89.39;93675.91;5036241;28;20192;-87
2023/10/07 06:38:53;;;;;;;20.17;15.30;;;;;;;11.81;88.78;93691.13;5047728;28;20695;-87
2023/10/07 06:41:20;;;;;;;16.57;15.07;;;;;;;11.90;88.16;93694.81;5040724;28;20214;-85
2023/10/07 06:43:53;;;;;;;17.03;15.60;;;;;;;12.12;87.32;93703.22;5049281;28;20231;-81
2023/10/07 06:46:22;;;;;;;20.33;16.43;;;;;;;12.05;87.65;93717.59;5047289;28;20231;-87
2023/10/07 06:48:49;;;;;;;21.33;16.23;;;;;;;11.94;87.08;93674.16;5047832;28;20221;-80
2023/10/07 06:51:15;;;;;;;17.93;15.93;;;;;;;12.55;84.43;93697.44;5046785;28;20194;-78
2023/10/07 06:53:44;;;;;;;21.77;15.07;;;;;;;12.62;84.07;93697.19;5039468;28;20226;-81
2023/10/07 06:56:22;;;;;;;30.33;15.50;;;;;;;12.45;85.52;93712.41;5042802;28;20193;-84
2023/10/07 06:58:54;;;;;;;19.80;14.27;;;;;;;12.16;85.72;93693.78;5048260;28;20245;-84
2023/10/07 07:04:10;;;;;;;24.73;15.47;;;;;;;12.65;84.22;93686.19;5043115;28;20214;-86
2023/10/07 07:06:43;;;;;;;17.47;14.50;;;;;;;12.77;84.05;93692.72;5050731;28;20213;-85
2023/10/07 07:12:11;;;;;;;16.60;15.00;;;;;;;13.49;80.35;93691.47;5052878;28;20215;-77
2023/10/07 07:14:37;;;;;;;14.83;13.40;;;;;;;13.42;81.28;93690.94;5038347;28;20304;-80
2023/10/07 07:20:18;;;;;;;14.23;13.07;;;;;;;13.31;80.54;93698.09;5046039;28;20244;-88
2023/10/07 07:22:45;;;;;;;14.60;13.17;;;;;;;13.63;79.28;93698.47;5051850;28;20189;-85
2023/10/07 07:28:09;;;;;;;15.43;13.83;;;;;;;13.84;76.90;93699.13;5035660;28;20241;-79
2023/10/07 07:30:35;;;;;;;20.90;14.17;;;;;;;13.74;77.05;93673.72;5050144;28;20185;-79
2023/10/07 07:33:28;;;;;;;19.97;13.70;;;;;;;14.03;76.86;93703.50;5051412;28;20874;-81
2023/10/07 07:35:56;;;;;;;14.10;12.80;;;;;;;13.90;76.32;93703.34;5044771;28;20226;-83
2023/10/07 07:41:08;;;;;;;16.70;13.27;;;;;;;14.40;74.62;93713.50;5051602;28;20187;-80
2023/10/07 07:43:36;;;;;;;16.57;13.33;;;;;;;13.77;76.68;93707.34;5050314;28;20252;-83
2023/10/07 07:46:51;;;;;;;17.27;13.70;;;;;;;13.97;75.88;93701.97;5050177;28;20313;-78
2023/10/07 07:49:08;;;;;;;14.50;13.20;;;;;;;14.03;75.87;93693.00;5049065;28;20234;-76
2023/10/07 07:51:37;;;;;;;13.90;12.47;;;;;;;14.50;74.26;93695.03;5051459;28;20186;-76
2023/10/07 07:54:07;;;;;;;15.27;13.70;;;;;;;14.32;74.41;93693.06;5038508;28;20210;-83
2023/10/07 07:56:37;;;;;;;14.40;13.03;;;;;;;14.13;74.69;93656.16;5046098;28;20222;-80
2023/10/07 07:59:13;;;;;;;15.57;13.87;;;;;;;14.59;74.61;93689.97;5041025;28;20257;-77
2023/10/07 08:01:53;;;;;;;14.10;12.50;;;;;;;14.69;73.41;93684.63;5046650;28;20178;-77
2023/10/07 08:04:37;;;;;;;19.47;12.60;;;;;;;14.35;73.90;93674.91;5034912;28;20217;-78
2023/10/07 08:07:06;;;;;;;15.07;12.67;;;;;;;14.98;72.68;93686.19;5039358;28;20224;-77
2023/10/07 08:09:36;;;;;;;15.27;13.37;;;;;;;14.73;73.22;93696.16;5048694;28;20253;-78
2023/10/07 08:12:05;;;;;;;18.90;12.90;;;;;;;14.42;73.72;93683.28;5051434;28;20200;-75
2023/10/07 08:14:32;;;;;;;15.13;13.87;;;;;;;14.55;73.98;93694.22;5047910;28;20305;-75
2023/10/07 08:17:00;;;;;;;18.70;12.60;;;;;;;14.98;72.36;93703.81;5047456;28;20254;-76
2023/10/07 08:19:25;;;;;;;13.30;12.20;;;;;;;14.71;73.46;93703.53;5044557;28;20310;-76
2023/10/07 08:21:52;;;;;;;19.90;11.73;;;;;;;14.77;72.88;93682.16;5044317;28;20191;-75
2023/10/07 08:24:20;;;;;;;12.77;11.50;;;;;;;15.03;72.82;93695.88;5039324;28;20219;-75
2023/10/07 08:26:48;;;;;;;13.77;12.07;;;;;;;15.20;71.22;93702.25;5043426;28;20238;-76
2023/10/07 08:29:31;;;;;;;15.10;13.53;;;;;;;15.61;69.95;93706.00;5047490;28;20218;-77
2023/10/07 08:32:00;;;;;;;14.20;12.57;;;;;;;15.62;69.77;93698.91;5049999;28;20187;-77
2023/10/07 08:34:32;;;;;;;15.23;14.00;;;;;;;15.37;70.90;93697.34;5047245;28;20226;-89
2023/10/07 08:37:00;;;;;;;15.00;13.47;;;;;;;15.29;71.32;93678.72;5051016;28;20228;-80
2023/10/07 08:39:28;;;;;;;17.07;14.60;;;;;;;15.22;71.46;93688.81;5046249;28;20281;-79
2023/10/07 08:41:58;;;;;;;16.80;15.30;;;;;;;15.12;71.24;93683.66;5049679;28;20196;-77
2023/10/07 08:44:29;;;;;;;18.63;15.73;;;;;;;15.30;70.37;93678.44;5048851;28;20233;-77
2023/10/07 08:47:04;;;;;;;18.93;14.43;;;;;;;15.50;70.65;93672.97;5042850;28;20219;-76
2023/10/07 08:49:33;;;;;;;19.73;16.07;;;;;;;15.74;69.08;93673.72;5060114;28;20285;-74
2023/10/07 08:52:08;;;;;;;18.10;16.17;;;;;;;16.00;68.24;93674.16;5046663;28;20179;-75
2023/10/07 08:54:37;;;;;;;19.07;15.80;;;;;;;15.92;68.32;93666.91;5041574;28;20294;-75
2023/10/07 08:57:19;;;;;;;19.53;17.73;;;;;;;15.97;66.70;93664.97;5047675;28;20185;-74
2023/10/07 08:59:49;;;;;;;18.03;14.80;;;;;;;16.12;65.76;93666.63;5045284;28;20218;-75
2023/10/07 09:02:25;;;;;;;16.37;14.63;;;;;;;15.97;66.67;93662.34;5049140;28;20254;-79
2023/10/07 09:04:51;;;;;;;15.43;14.03;;;;;;;15.72;65.93;93667.19;5034808;28;20221;-77
2023/10/07 09:07:20;;;;;;;15.43;13.80;;;;;;;15.83;65.13;93650.16;5044137;28;20222;-79
2023/10/07 09:09:46;;;;;;;14.37;13.07;;;;;;;15.82;65.19;93651.25;5049711;28;20230;-79
2023/10/07 09:12:15;;;;;;;15.17;13.80;;;;;;;16.21;64.13;93646.44;5041218;28;20187;-78
2023/10/07 09:14:57;;;;;;;16.73;14.97;;;;;;;16.22;65.40;93658.53;5048182;28;20253;-76
2023/10/07 09:17:24;;;;;;;18.23;15.90;;;;;;;16.04;68.20;93640.91;5048153;28;20262;-78
2023/10/07 09:19:53;;;;;;;17.00;15.40;;;;;;;16.41;66.05;93656.66;5042953;28;20297;-77
2023/10/07 09:22:33;;;;;;;16.30;14.47;;;;;;;16.46;65.47;93656.63;5045432;28;20178;-78
2023/10/07 09:27:54;;;;;;;14.87;13.37;;;;;;;16.47;65.33;93660.81;5037327;28;20220;-79
2023/10/07 09:31:06;;;;;;;15.67;14.07;;;;;;;16.96;63.22;93655.75;5035978;28;20197;-78
2023/10/07 09:33:35;;;;;;;15.13;13.60;;;;;;;17.18;61.75;93668.28;5026824;28;20256;-78
2023/10/07 09:38:41;;;;;;;15.13;13.63;;;;;;;16.62;63.62;93659.78;5045253;28;20233;-87
2023/10/07 09:41:23;;;;;;;14.83;13.53;;;;;;;16.43;63.63;93662.44;5037819;28;20203;-79
2023/10/07 09:43:56;;;;;;;15.07;13.57;;;;;;;16.68;63.64;93659.41;5037407;28;20230;-82
2023/10/07 09:46:25;;;;;;;17.03;14.87;;;;;;;16.72;63.08;93659.59;5048322;28;20231;-85
2023/10/07 09:48:52;;;;;;;16.77;14.27;;;;;;;16.61;62.15;93651.09;5048379;28;20237;-78
2023/10/07 09:52:03;;;;;;;17.67;13.53;;;;;;;16.34;62.84;93616.72;5041796;28;20186;-84
2023/10/07 09:54:27;;;;;;;17.07;14.00;;;;;;;16.86;61.97;93629.53;5034437;28;20254;-83
2023/10/07 09:57:06;;;;;;;18.20;14.73;;;;;;;16.97;62.03;93646.75;5049414;28;20202;-79
2023/10/07 09:59:56;;;;;;;15.50;13.50;;;;;;;17.21;60.18;93638.66;5049061;28;20268;-77
2023/10/07 10:02:48;;;;;;;16.70;14.83;;;;;;;17.50;59.72;93639.94;5041267;28;20189;-77
2023/10/07 10:05:26;;;;;;;15.83;14.33;;;;;;;17.33;60.47;93645.00;5059235;28;20210;-77
2023/10/07 10:07:57;;;;;;;16.50;14.60;;;;;;;17.14;61.09;93635.63;5059501;28;20189;-78
2023/10/07 10:10:32;;;;;;;17.20;13.83;;;;;;;17.24;60.35;93630.94;5061686;28;20177;-78
2023/10/07 10:20:46;;;;;;;18.97;14.13;;;;;;;17.04;60.62;93581.19;5067914;28;21009;-77
2023/10/07 10:23:19;;;;;;;15.83;13.40;;;;;;;17.70;58.81;93601.75;5066473;28;20233;-77
2023/10/07 10:25:49;;;;;;;15.93;14.37;;;;;;;17.74;58.13;93599.31;5066868;28;20205;-78
2023/10/07 10:28:27;;;;;;;18.10;15.03;;;;;;;17.28;60.01;93565.13;5066149;28;20230;-77
2023/10/07 10:30:56;;;;;;;22.17;14.77;;;;;;;17.56;58.63;93595.72;5066319;28;20237;-77
2023/10/07 10:33:23;;;;;;;20.50;14.07;;;;;;;17.73;59.00;93587.19;5061743;28;20229;-79
2023/10/07 10:35:55;;;;;;;18.13;14.30;;;;;;;17.49;58.79;93590.06;5068566;28;20166;-78
2023/10/07 10:38:21;;;;;;;15.00;13.50;;;;;;;17.63;59.19;93574.19;5062137;28;20221;-77
2023/10/07 10:40:46;;;;;;;18.47;13.87;;;;;;;17.65;58.67;93567.50;5067401;28;20253;-77
2023/10/07 10:43:25;;;;;;;18.17;15.67;;;;;;;17.83;59.00;93568.44;5066146;28;20225;-77
2023/10/07 10:46:07;;;;;;;15.50;13.87;;;;;;;18.32;57.15;93570.97;5060189;28;20251;-77
2023/10/07 10:48:36;;;;;;;18.30;14.47;;;;;;;18.30;58.09;93567.84;5068541;28;20230;-77
2023/10/07 10:51:08;;;;;;;20.27;14.97;;;;;;;17.80;57.29;93553.97;5068707;28;20196;-77
2023/10/07 10:53:36;;;;;;;14.50;13.10;;;;;;;18.22;57.49;93547.44;5057176;28;20465;-77
2023/10/07 10:56:02;;;;;;;15.57;14.10;;;;;;;18.43;57.22;93551.13;5068914;28;20201;-77
2023/10/07 10:58:27;;;;;;;14.83;13.33;;;;;;;18.52;55.60;93549.34;5067059;28;20221;-78
2023/10/07 11:00:54;;;;;;;14.83;13.40;;;;;;;18.32;55.80;93532.09;5068866;28;20208;-77
2023/10/07 11:03:23;;;;;;;16.33;13.73;;;;;;;18.20;56.82;93542.44;5068415;28;20216;-76
2023/10/07 11:05:58;;;;;;;14.80;13.30;;;;;;;18.13;57.22;93530.75;5068710;28;20197;-77
2023/10/07 11:08:24;;;;;;;15.17;13.77;;;;;;;18.57;57.34;93525.38;5063466;28;20226;-77
2023/10/07 11:10:55;;;;;;;14.73;12.90;;;;;;;18.59;56.05;93529.31;5066174;28;20189;-77
2023/10/07 11:13:22;;;;;;;17.60;14.37;;;;;;;18.45;56.95;93525.97;5058522;28;20249;-77
2023/10/07 11:16:17;;;;;;;15.83;14.23;;;;;;;18.16;57.63;93519.56;5050962;28;20365;-78
2023/10/07 11:18:45;;;;;;;15.73;14.03;;;;;;;18.27;57.38;93515.59;5052662;28;20250;-77
2023/10/07 11:21:15;;;;;;;15.60;14.10;;;;;;;18.29;58.00;93513.44;5069320;28;20186;-78
2023/10/07 11:24:01;;;;;;;20.33;13.07;;;;;;;18.56;58.51;93505.31;5063297;28;20294;-78
2023/10/07 11:26:30;;;;;;;14.40;12.97;;;;;;;18.78;56.61;93511.34;5061732;28;20236;-77
2023/10/07 11:28:56;;;;;;;15.00;13.60;;;;;;;18.66;56.33;93500.53;5056479;28;20240;-77
2023/10/07 11:31:30;;;;;;;15.33;13.73;;;;;;;18.53;56.69;93495.34;5026924;28;20191;-78
2023/10/07 11:33:56;;;;;;;15.10;12.97;;;;;;;18.63;57.22;93492.44;5066920;28;20209;-77
2023/10/07 11:36:22;;;;;;;17.90;12.50;;;;;;;18.90;56.08;93478.97;5068577;28;20186;-77
2023/10/07 11:38:48;;;;;;;14.63;13.17;;;;;;;19.20;54.10;93499.28;5063408;28;20222;-77
2023/10/07 11:41:16;;;;;;;15.47;13.47;;;;;;;18.83;54.73;93490.00;5048800;28;20182;-79
2023/10/07 11:43:45;;;;;;;17.93;12.27;;;;;;;18.48;55.74;93482.25;5067144;28;20254;-78
2023/10/07 11:46:13;;;;;;;15.37;13.83;;;;;;;18.43;55.84;93487.69;5067297;28;20218;-77
2023/10/07 11:48:44;;;;;;;15.37;13.63;;;;;;;18.80;55.25;93489.84;5068288;28;20527;-77
2023/10/07 11:51:10;;;;;;;12.77;11.47;;;;;;;18.72;54.78;93461.50;5063555;28;20171;-77
2023/10/07 11:53:35;;;;;;;15.00;11.97;;;;;;;18.85;54.85;93479.09;5071910;28;20234;-78
2023/10/07 11:56:05;;;;;;;14.10;12.60;;;;;;;19.03;55.15;93476.22;5071788;28;20199;-78
2023/10/07 11:58:32;;;;;;;18.53;13.47;;;;;;;19.16;56.00;93479.78;5071384;28;20294;-77
2023/10/07 12:00:57;;;;;;;13.47;11.83;;;;;;;19.23;54.96;93469.53;5072215;28;20202;-77
2023/10/07 12:03:25;;;;;;;13.30;11.63;;;;;;;19.46;52.81;93467.53;5058254;28;21183;-78
2023/10/07 12:05:50;;;;;;;13.37;12.17;;;;;;;19.34;52.04;93454.16;5069320;28;20233;-77
2023/10/07 12:08:18;;;;;;;13.63;12.20;;;;;;;19.24;52.80;93457.09;5058937;28;20228;-77
2023/10/07 12:10:44;;;;;;;41.07;14.27;;;;;;;19.24;52.39;93455.19;5068632;28;20195;-77
2023/10/07 12:13:14;;;;;;;14.70;11.73;;;;;;;19.35;51.44;93461.78;5068288;28;20287;-77
2023/10/07 12:15:42;;;;;;;12.93;11.63;;;;;;;19.42;52.03;93450.72;5055740;28;20200;-77
2023/10/07 12:18:09;;;;;;;14.03;11.13;;;;;;;19.50;51.67;93444.66;5064656;28;20234;-78
2023/10/07 12:20:34;;;;;;;14.57;12.63;;;;;;;19.81;51.46;93447.91;5060969;28;20187;-77
2023/10/07 12:23:00;;;;;;;14.50;12.17;;;;;;;19.92;49.83;93444.59;5070612;28;20222;-77
2023/10/07 12:25:25;;;;;;;13.50;12.37;;;;;;;20.04;49.84;93442.09;5073401;28;20203;-77